sensor_id;sensor_type;location;lat;lon;timestamp;P1;durP1;ratioP1;P2;durP2;ratioP2
52934;SDS011;38802;50.198;19.796;2023-12-22T00:01:28;5.70;;;2.90;;
52934;SDS011;38802;50.198;19.796;2023-12-22T00:03:56;6.60;;;3.10;;
52934;SDS011;38802;50.198;19.796;2023-12-22T00:06:24;5.10;;;3.10;;
52934;SDS011;38802;50.198;19.796;2023-12-22T00:08:52;8.10;;;2.70;;
52934;SDS011;38802;50.198;19.796;2023-12-22T00:11:20;4.30;;;3.10;;
52934;SDS011;38802;50.198;19.796;2023-12-22T00:13:48;5.20;;;2.70;;
52934;SDS011;38802;50.198;19.796;2023-12-22T00:16:16;6.00;;;3.10;;
52934;SDS011;38802;50.198;19.796;2023-12-22T00:18:44;6.40;;;3.20;;
52934;SDS011;38802;50.198;19.796;2023-12-22T00:21:12;6.20;;;2.70;;
52934;SDS011;38802;50.198;19.796;2023-12-22T00:23:40;7.40;;;3.20;;
52934;SDS011;38802;50.198;19.796;2023-12-22T00:26:08;6.50;;;3.00;;
52934;SDS011;38802;50.198;19.796;2023-12-22T00:28:36;9.30;;;3.50;;
52934;SDS011;38802;50.198;19.796;2023-12-22T00:31:04;5.90;;;2.30;;
52934;SDS011;38802;50.198;19.796;2023-12-22T00:33:32;7.30;;;3.10;;
52934;SDS011;38802;50.198;19.796;2023-12-22T00:36:00;10.10;;;2.70;;
52934;SDS011;38802;50.198;19.796;2023-12-22T00:38:28;4.70;;;2.60;;
52934;SDS011;38802;50.198;19.796;2023-12-22T00:40:56;11.10;;;2.70;;
52934;SDS011;38802;50.198;19.796;2023-12-22T00:43:25;7.40;;;3.50;;
52934;SDS011;38802;50.198;19.796;2023-12-22T00:45:53;4.50;;;2.50;;
52934;SDS011;38802;50.198;19.796;2023-12-22T00:48:20;5.10;;;2.70;;
52934;SDS011;38802;50.198;19.796;2023-12-22T00:50:48;6.10;;;2.80;;
52934;SDS011;38802;50.198;19.796;2023-12-22T00:53:17;6.90;;;3.10;;
52934;SDS011;38802;50.198;19.796;2023-12-22T00:55:45;6.00;;;2.70;;
52934;SDS011;38802;50.198;19.796;2023-12-22T00:58:13;7.80;;;3.20;;
52934;SDS011;38802;50.198;19.796;2023-12-22T01:00:41;6.50;;;2.40;;
52934;SDS011;38802;50.198;19.796;2023-12-22T01:03:09;11.90;;;3.50;;
52934;SDS011;38802;50.198;19.796;2023-12-22T01:05:40;4.50;;;2.20;;
52934;SDS011;38802;50.198;19.796;2023-12-22T01:08:08;5.20;;;2.10;;
52934;SDS011;38802;50.198;19.796;2023-12-22T01:10:36;5.50;;;2.40;;
52934;SDS011;38802;50.198;19.796;2023-12-22T01:13:04;4.30;;;2.20;;
52934;SDS011;38802;50.198;19.796;2023-12-22T01:15:32;6.60;;;2.20;;
52934;SDS011;38802;50.198;19.796;2023-12-22T01:18:00;7.30;;;2.70;;
52934;SDS011;38802;50.198;19.796;2023-12-22T01:20:29;6.60;;;2.30;;
52934;SDS011;38802;50.198;19.796;2023-12-22T01:22:57;3.90;;;2.50;;
52934;SDS011;38802;50.198;19.796;2023-12-22T01:25:25;8.10;;;2.40;;
52934;SDS011;38802;50.198;19.796;2023-12-22T01:27:53;7.60;;;2.30;;
52934;SDS011;38802;50.198;19.796;2023-12-22T01:30:21;5.50;;;2.70;;
52934;SDS011;38802;50.198;19.796;2023-12-22T01:32:49;11.60;;;3.50;;
52934;SDS011;38802;50.198;19.796;2023-12-22T01:35:17;5.50;;;2.90;;
52934;SDS011;38802;50.198;19.796;2023-12-22T01:37:45;9.50;;;2.70;;
52934;SDS011;38802;50.198;19.796;2023-12-22T01:40:16;7.10;;;2.40;;
52934;SDS011;38802;50.198;19.796;2023-12-22T01:42:44;8.10;;;3.10;;
52934;SDS011;38802;50.198;19.796;2023-12-22T01:45:13;6.90;;;3.10;;
52934;SDS011;38802;50.198;19.796;2023-12-22T01:47:41;4.50;;;2.70;;
52934;SDS011;38802;50.198;19.796;2023-12-22T01:50:10;5.90;;;2.60;;
52934;SDS011;38802;50.198;19.796;2023-12-22T01:52:39;7.00;;;3.00;;
52934;SDS011;38802;50.198;19.796;2023-12-22T01:55:10;3.70;;;2.20;;
52934;SDS011;38802;50.198;19.796;2023-12-22T01:57:41;5.70;;;2.00;;
52934;SDS011;38802;50.198;19.796;2023-12-22T02:00:09;8.20;;;2.10;;
52934;SDS011;38802;50.198;19.796;2023-12-22T02:02:38;4.90;;;2.40;;
52934;SDS011;38802;50.198;19.796;2023-12-22T02:05:10;5.90;;;2.00;;
52934;SDS011;38802;50.198;19.796;2023-12-22T02:07:41;6.10;;;2.50;;
52934;SDS011;38802;50.198;19.796;2023-12-22T02:10:10;6.40;;;1.90;;
52934;SDS011;38802;50.198;19.796;2023-12-22T02:12:40;9.60;;;2.50;;
52934;SDS011;38802;50.198;19.796;2023-12-22T02:15:19;6.50;;;2.40;;
52934;SDS011;38802;50.198;19.796;2023-12-22T02:20:55;7.10;;;3.20;;
52934;SDS011;38802;50.198;19.796;2023-12-22T02:23:23;4.00;;;1.90;;
52934;SDS011;38802;50.198;19.796;2023-12-22T02:25:53;4.40;;;2.20;;
52934;SDS011;38802;50.198;19.796;2023-12-22T02:28:31;6.10;;;2.60;;
52934;SDS011;38802;50.198;19.796;2023-12-22T02:31:11;9.20;;;2.20;;
52934;SDS011;38802;50.198;19.796;2023-12-22T02:33:48;5.00;;;2.30;;
52934;SDS011;38802;50.198;19.796;2023-12-22T02:36:18;4.30;;;2.10;;
52934;SDS011;38802;50.198;19.796;2023-12-22T02:38:48;5.60;;;2.50;;
52934;SDS011;38802;50.198;19.796;2023-12-22T02:41:19;4.50;;;2.10;;
52934;SDS011;38802;50.198;19.796;2023-12-22T02:43:47;4.70;;;2.30;;
52934;SDS011;38802;50.198;19.796;2023-12-22T02:46:16;3.50;;;2.10;;
52934;SDS011;38802;50.198;19.796;2023-12-22T02:48:44;4.90;;;2.30;;
52934;SDS011;38802;50.198;19.796;2023-12-22T02:51:12;3.00;;;1.60;;
52934;SDS011;38802;50.198;19.796;2023-12-22T02:53:40;7.80;;;2.00;;
52934;SDS011;38802;50.198;19.796;2023-12-22T02:56:08;2.80;;;1.60;;
52934;SDS011;38802;50.198;19.796;2023-12-22T02:58:35;3.30;;;2.20;;
52934;SDS011;38802;50.198;19.796;2023-12-22T03:01:04;3.10;;;2.00;;
52934;SDS011;38802;50.198;19.796;2023-12-22T03:03:32;8.50;;;2.20;;
52934;SDS011;38802;50.198;19.796;2023-12-22T03:06:00;2.70;;;2.00;;
52934;SDS011;38802;50.198;19.796;2023-12-22T03:08:28;3.40;;;1.80;;
52934;SDS011;38802;50.198;19.796;2023-12-22T03:10:56;6.10;;;2.40;;
52934;SDS011;38802;50.198;19.796;2023-12-22T03:13:24;6.20;;;2.10;;
52934;SDS011;38802;50.198;19.796;2023-12-22T03:15:52;2.90;;;1.60;;
52934;SDS011;38802;50.198;19.796;2023-12-22T03:18:20;6.50;;;2.10;;
52934;SDS011;38802;50.198;19.796;2023-12-22T03:20:48;4.30;;;1.70;;
52934;SDS011;38802;50.198;19.796;2023-12-22T03:23:16;3.20;;;1.80;;
52934;SDS011;38802;50.198;19.796;2023-12-22T03:25:44;4.00;;;1.80;;
52934;SDS011;38802;50.198;19.796;2023-12-22T03:28:12;2.10;;;1.90;;
52934;SDS011;38802;50.198;19.796;2023-12-22T03:30:40;5.40;;;2.00;;
52934;SDS011;38802;50.198;19.796;2023-12-22T03:33:08;6.60;;;2.00;;
52934;SDS011;38802;50.198;19.796;2023-12-22T03:35:36;5.60;;;2.40;;
52934;SDS011;38802;50.198;19.796;2023-12-22T03:38:04;2.70;;;2.30;;
52934;SDS011;38802;50.198;19.796;2023-12-22T03:40:32;4.30;;;1.90;;
52934;SDS011;38802;50.198;19.796;2023-12-22T03:43:01;4.50;;;2.00;;
52934;SDS011;38802;50.198;19.796;2023-12-22T03:45:29;5.60;;;2.00;;
52934;SDS011;38802;50.198;19.796;2023-12-22T03:47:57;5.70;;;2.30;;
52934;SDS011;38802;50.198;19.796;2023-12-22T03:50:25;4.70;;;2.80;;
52934;SDS011;38802;50.198;19.796;2023-12-22T03:52:53;7.60;;;3.10;;
52934;SDS011;38802;50.198;19.796;2023-12-22T03:55:21;4.20;;;1.90;;
52934;SDS011;38802;50.198;19.796;2023-12-22T03:57:49;4.60;;;2.20;;
52934;SDS011;38802;50.198;19.796;2023-12-22T04:00:17;5.50;;;2.30;;
52934;SDS011;38802;50.198;19.796;2023-12-22T04:02:45;3.70;;;2.10;;
52934;SDS011;38802;50.198;19.796;2023-12-22T04:05:13;11.10;;;2.10;;
52934;SDS011;38802;50.198;19.796;2023-12-22T04:07:41;6.70;;;2.30;;
52934;SDS011;38802;50.198;19.796;2023-12-22T04:10:09;4.60;;;2.60;;
52934;SDS011;38802;50.198;19.796;2023-12-22T04:12:37;10.00;;;3.30;;
52934;SDS011;38802;50.198;19.796;2023-12-22T04:15:06;9.80;;;2.30;;
52934;SDS011;38802;50.198;19.796;2023-12-22T04:17:35;10.40;;;2.70;;
52934;SDS011;38802;50.198;19.796;2023-12-22T04:20:03;5.70;;;1.90;;
52934;SDS011;38802;50.198;19.796;2023-12-22T04:22:31;5.20;;;2.50;;
52934;SDS011;38802;50.198;19.796;2023-12-22T04:24:59;4.20;;;2.00;;
52934;SDS011;38802;50.198;19.796;2023-12-22T04:27:27;3.80;;;1.80;;
52934;SDS011;38802;50.198;19.796;2023-12-22T04:29:55;3.20;;;2.20;;
52934;SDS011;38802;50.198;19.796;2023-12-22T04:32:23;8.50;;;2.50;;
52934;SDS011;38802;50.198;19.796;2023-12-22T04:34:51;11.90;;;2.60;;
52934;SDS011;38802;50.198;19.796;2023-12-22T04:37:19;6.50;;;2.70;;
52934;SDS011;38802;50.198;19.796;2023-12-22T04:39:47;6.90;;;2.40;;
52934;SDS011;38802;50.198;19.796;2023-12-22T04:42:15;4.30;;;2.30;;
52934;SDS011;38802;50.198;19.796;2023-12-22T04:44:43;4.90;;;2.10;;
52934;SDS011;38802;50.198;19.796;2023-12-22T04:47:11;6.70;;;2.60;;
52934;SDS011;38802;50.198;19.796;2023-12-22T04:49:40;6.40;;;2.30;;
52934;SDS011;38802;50.198;19.796;2023-12-22T04:52:08;6.80;;;1.70;;
52934;SDS011;38802;50.198;19.796;2023-12-22T04:54:36;4.80;;;2.40;;
52934;SDS011;38802;50.198;19.796;2023-12-22T04:57:04;4.00;;;2.30;;
52934;SDS011;38802;50.198;19.796;2023-12-22T04:59:32;6.00;;;2.10;;
52934;SDS011;38802;50.198;19.796;2023-12-22T05:02:00;5.30;;;2.00;;
52934;SDS011;38802;50.198;19.796;2023-12-22T05:04:28;3.20;;;2.00;;
52934;SDS011;38802;50.198;19.796;2023-12-22T05:06:56;7.30;;;3.60;;
52934;SDS011;38802;50.198;19.796;2023-12-22T05:09:25;5.30;;;2.20;;
52934;SDS011;38802;50.198;19.796;2023-12-22T05:11:53;1.80;;;1.50;;
52934;SDS011;38802;50.198;19.796;2023-12-22T05:14:21;2.10;;;1.60;;
52934;SDS011;38802;50.198;19.796;2023-12-22T05:16:49;2.10;;;1.40;;
52934;SDS011;38802;50.198;19.796;2023-12-22T05:19:18;3.80;;;1.50;;
52934;SDS011;38802;50.198;19.796;2023-12-22T05:21:46;1.50;;;1.40;;
52934;SDS011;38802;50.198;19.796;2023-12-22T05:24:15;1.70;;;1.10;;
52934;SDS011;38802;50.198;19.796;2023-12-22T05:26:43;1.50;;;1.40;;
52934;SDS011;38802;50.198;19.796;2023-12-22T05:29:11;4.40;;;2.50;;
52934;SDS011;38802;50.198;19.796;2023-12-22T05:31:40;2.40;;;1.70;;
52934;SDS011;38802;50.198;19.796;2023-12-22T05:34:08;1.70;;;1.60;;
52934;SDS011;38802;50.198;19.796;2023-12-22T05:36:38;2.00;;;1.80;;
52934;SDS011;38802;50.198;19.796;2023-12-22T05:39:06;2.20;;;1.70;;
52934;SDS011;38802;50.198;19.796;2023-12-22T05:41:37;2.70;;;2.30;;
52934;SDS011;38802;50.198;19.796;2023-12-22T05:44:05;1.90;;;1.80;;
52934;SDS011;38802;50.198;19.796;2023-12-22T05:46:37;4.80;;;1.90;;
52934;SDS011;38802;50.198;19.796;2023-12-22T05:49:06;2.10;;;2.00;;
52934;SDS011;38802;50.198;19.796;2023-12-22T05:51:38;1.70;;;1.60;;
52934;SDS011;38802;50.198;19.796;2023-12-22T05:54:07;5.50;;;2.10;;
52934;SDS011;38802;50.198;19.796;2023-12-22T05:56:36;2.30;;;2.10;;
52934;SDS011;38802;50.198;19.796;2023-12-22T05:59:04;5.60;;;2.40;;
52934;SDS011;38802;50.198;19.796;2023-12-22T06:01:34;4.10;;;2.40;;
52934;SDS011;38802;50.198;19.796;2023-12-22T06:04:02;2.60;;;2.40;;
52934;SDS011;38802;50.198;19.796;2023-12-22T06:06:30;4.70;;;2.50;;
52934;SDS011;38802;50.198;19.796;2023-12-22T06:09:01;9.40;;;2.70;;
52934;SDS011;38802;50.198;19.796;2023-12-22T06:11:29;11.50;;;3.60;;
52934;SDS011;38802;50.198;19.796;2023-12-22T06:13:58;5.60;;;2.90;;
52934;SDS011;38802;50.198;19.796;2023-12-22T06:16:26;10.50;;;2.50;;
52934;SDS011;38802;50.198;19.796;2023-12-22T06:18:54;8.70;;;2.70;;
52934;SDS011;38802;50.198;19.796;2023-12-22T06:21:22;5.10;;;2.80;;
52934;SDS011;38802;50.198;19.796;2023-12-22T06:23:50;6.90;;;3.50;;
52934;SDS011;38802;50.198;19.796;2023-12-22T06:26:18;6.70;;;3.40;;
52934;SDS011;38802;50.198;19.796;2023-12-22T06:28:46;5.30;;;2.90;;
52934;SDS011;38802;50.198;19.796;2023-12-22T06:31:18;5.50;;;2.80;;
52934;SDS011;38802;50.198;19.796;2023-12-22T06:33:48;6.60;;;3.20;;
52934;SDS011;38802;50.198;19.796;2023-12-22T06:36:21;8.00;;;3.50;;
52934;SDS011;38802;50.198;19.796;2023-12-22T06:38:50;4.80;;;2.30;;
52934;SDS011;38802;50.198;19.796;2023-12-22T06:41:22;4.40;;;2.20;;
52934;SDS011;38802;50.198;19.796;2023-12-22T06:43:55;8.80;;;4.70;;
52934;SDS011;38802;50.198;19.796;2023-12-22T06:46:25;11.10;;;3.30;;
52934;SDS011;38802;50.198;19.796;2023-12-22T06:48:54;3.90;;;2.70;;
52934;SDS011;38802;50.198;19.796;2023-12-22T06:51:25;6.90;;;2.90;;
52934;SDS011;38802;50.198;19.796;2023-12-22T06:53:54;6.50;;;3.10;;
52934;SDS011;38802;50.198;19.796;2023-12-22T06:56:24;12.00;;;3.10;;
52934;SDS011;38802;50.198;19.796;2023-12-22T06:58:53;7.60;;;3.80;;
52934;SDS011;38802;50.198;19.796;2023-12-22T07:01:30;4.90;;;2.50;;
52934;SDS011;38802;50.198;19.796;2023-12-22T07:04:02;5.40;;;2.80;;
52934;SDS011;38802;50.198;19.796;2023-12-22T07:06:33;4.20;;;3.30;;
52934;SDS011;38802;50.198;19.796;2023-12-22T07:11:42;8.50;;;3.80;;
52934;SDS011;38802;50.198;19.796;2023-12-22T07:14:10;3.80;;;2.90;;
52934;SDS011;38802;50.198;19.796;2023-12-22T07:16:39;6.10;;;3.20;;
52934;SDS011;38802;50.198;19.796;2023-12-22T07:19:07;9.70;;;3.00;;
52934;SDS011;38802;50.198;19.796;2023-12-22T07:21:36;10.60;;;3.70;;
52934;SDS011;38802;50.198;19.796;2023-12-22T07:24:04;3.30;;;3.00;;
52934;SDS011;38802;50.198;19.796;2023-12-22T07:26:33;8.20;;;3.90;;
52934;SDS011;38802;50.198;19.796;2023-12-22T07:29:01;7.70;;;3.50;;
52934;SDS011;38802;50.198;19.796;2023-12-22T07:31:29;9.80;;;3.90;;
52934;SDS011;38802;50.198;19.796;2023-12-22T07:33:57;8.10;;;3.70;;
52934;SDS011;38802;50.198;19.796;2023-12-22T07:36:26;6.80;;;3.20;;
52934;SDS011;38802;50.198;19.796;2023-12-22T07:38:54;5.50;;;2.70;;
52934;SDS011;38802;50.198;19.796;2023-12-22T07:41:25;10.20;;;3.10;;
52934;SDS011;38802;50.198;19.796;2023-12-22T07:43:53;7.20;;;3.70;;
52934;SDS011;38802;50.198;19.796;2023-12-22T07:46:21;6.80;;;3.70;;
52934;SDS011;38802;50.198;19.796;2023-12-22T07:48:51;11.80;;;4.40;;
52934;SDS011;38802;50.198;19.796;2023-12-22T07:51:20;7.20;;;3.30;;
52934;SDS011;38802;50.198;19.796;2023-12-22T07:53:48;8.10;;;4.10;;
52934;SDS011;38802;50.198;19.796;2023-12-22T07:56:16;12.20;;;4.10;;
52934;SDS011;38802;50.198;19.796;2023-12-22T07:58:44;5.80;;;4.50;;
52934;SDS011;38802;50.198;19.796;2023-12-22T08:01:12;8.40;;;3.80;;
52934;SDS011;38802;50.198;19.796;2023-12-22T08:03:43;5.50;;;3.70;;
52934;SDS011;38802;50.198;19.796;2023-12-22T08:06:11;7.70;;;3.40;;
52934;SDS011;38802;50.198;19.796;2023-12-22T08:08:42;7.10;;;3.90;;
52934;SDS011;38802;50.198;19.796;2023-12-22T08:11:10;10.30;;;4.50;;
52934;SDS011;38802;50.198;19.796;2023-12-22T08:13:38;13.90;;;4.40;;
52934;SDS011;38802;50.198;19.796;2023-12-22T08:16:06;11.50;;;4.60;;
52934;SDS011;38802;50.198;19.796;2023-12-22T08:18:34;12.90;;;4.90;;
52934;SDS011;38802;50.198;19.796;2023-12-22T08:21:03;15.20;;;4.60;;
52934;SDS011;38802;50.198;19.796;2023-12-22T08:23:45;7.70;;;3.90;;
52934;SDS011;38802;50.198;19.796;2023-12-22T08:26:21;9.80;;;5.10;;
52934;SDS011;38802;50.198;19.796;2023-12-22T08:28:49;9.30;;;4.80;;
52934;SDS011;38802;50.198;19.796;2023-12-22T08:31:17;11.20;;;4.30;;
52934;SDS011;38802;50.198;19.796;2023-12-22T08:33:46;7.90;;;3.90;;
52934;SDS011;38802;50.198;19.796;2023-12-22T08:36:15;8.60;;;5.00;;
52934;SDS011;38802;50.198;19.796;2023-12-22T08:38:44;7.80;;;4.00;;
52934;SDS011;38802;50.198;19.796;2023-12-22T08:41:12;8.50;;;4.10;;
52934;SDS011;38802;50.198;19.796;2023-12-22T08:43:42;12.70;;;5.20;;
52934;SDS011;38802;50.198;19.796;2023-12-22T08:46:10;14.60;;;4.50;;
52934;SDS011;38802;50.198;19.796;2023-12-22T08:48:39;5.90;;;4.00;;
52934;SDS011;38802;50.198;19.796;2023-12-22T08:51:11;5.50;;;4.50;;
52934;SDS011;38802;50.198;19.796;2023-12-22T08:53:39;13.70;;;4.40;;
52934;SDS011;38802;50.198;19.796;2023-12-22T08:56:07;5.70;;;4.10;;
52934;SDS011;38802;50.198;19.796;2023-12-22T08:58:36;10.20;;;4.70;;
52934;SDS011;38802;50.198;19.796;2023-12-22T09:01:04;9.10;;;4.50;;
52934;SDS011;38802;50.198;19.796;2023-12-22T09:03:33;8.90;;;5.10;;
52934;SDS011;38802;50.198;19.796;2023-12-22T09:06:03;6.00;;;4.40;;
52934;SDS011;38802;50.198;19.796;2023-12-22T09:08:31;8.10;;;4.20;;
52934;SDS011;38802;50.198;19.796;2023-12-22T09:10:59;10.80;;;3.60;;
52934;SDS011;38802;50.198;19.796;2023-12-22T09:13:27;5.20;;;3.10;;
52934;SDS011;38802;50.198;19.796;2023-12-22T09:15:58;3.80;;;3.30;;
52934;SDS011;38802;50.198;19.796;2023-12-22T09:18:26;8.20;;;4.30;;
52934;SDS011;38802;50.198;19.796;2023-12-22T09:20:54;6.20;;;3.60;;
52934;SDS011;38802;50.198;19.796;2023-12-22T09:23:23;5.20;;;3.70;;
52934;SDS011;38802;50.198;19.796;2023-12-22T09:25:51;5.50;;;3.80;;
52934;SDS011;38802;50.198;19.796;2023-12-22T09:28:19;7.00;;;5.00;;
52934;SDS011;38802;50.198;19.796;2023-12-22T09:30:47;4.70;;;3.30;;
52934;SDS011;38802;50.198;19.796;2023-12-22T09:33:15;4.60;;;4.20;;
52934;SDS011;38802;50.198;19.796;2023-12-22T09:35:44;4.30;;;3.40;;
52934;SDS011;38802;50.198;19.796;2023-12-22T09:38:12;6.00;;;3.80;;
52934;SDS011;38802;50.198;19.796;2023-12-22T09:40:41;5.20;;;3.90;;
52934;SDS011;38802;50.198;19.796;2023-12-22T09:43:12;5.70;;;3.50;;
52934;SDS011;38802;50.198;19.796;2023-12-22T09:45:43;5.60;;;3.50;;
52934;SDS011;38802;50.198;19.796;2023-12-22T09:48:13;7.00;;;4.10;;
52934;SDS011;38802;50.198;19.796;2023-12-22T09:50:46;9.30;;;6.00;;
52934;SDS011;38802;50.198;19.796;2023-12-22T09:53:14;13.30;;;10.80;;
52934;SDS011;38802;50.198;19.796;2023-12-22T09:55:44;27.30;;;11.80;;
52934;SDS011;38802;50.198;19.796;2023-12-22T09:58:14;12.40;;;6.70;;
52934;SDS011;38802;50.198;19.796;2023-12-22T10:00:44;17.90;;;6.70;;
52934;SDS011;38802;50.198;19.796;2023-12-22T10:03:13;16.10;;;6.60;;
52934;SDS011;38802;50.198;19.796;2023-12-22T10:05:44;13.10;;;5.80;;
52934;SDS011;38802;50.198;19.796;2023-12-22T10:08:12;13.00;;;6.30;;
52934;SDS011;38802;50.198;19.796;2023-12-22T10:10:41;15.60;;;6.60;;
52934;SDS011;38802;50.198;19.796;2023-12-22T10:13:13;11.40;;;6.10;;
52934;SDS011;38802;50.198;19.796;2023-12-22T10:15:41;12.30;;;4.70;;
52934;SDS011;38802;50.198;19.796;2023-12-22T10:18:13;6.70;;;4.40;;
52934;SDS011;38802;50.198;19.796;2023-12-22T10:20:41;8.50;;;5.70;;
52934;SDS011;38802;50.198;19.796;2023-12-22T10:23:10;8.60;;;5.60;;
52934;SDS011;38802;50.198;19.796;2023-12-22T10:25:39;8.40;;;6.10;;
52934;SDS011;38802;50.198;19.796;2023-12-22T10:28:10;7.50;;;5.40;;
52934;SDS011;38802;50.198;19.796;2023-12-22T10:30:39;11.20;;;4.90;;
52934;SDS011;38802;50.198;19.796;2023-12-22T10:33:08;8.70;;;5.80;;
52934;SDS011;38802;50.198;19.796;2023-12-22T10:35:36;8.70;;;5.00;;
52934;SDS011;38802;50.198;19.796;2023-12-22T10:38:04;10.30;;;4.60;;
52934;SDS011;38802;50.198;19.796;2023-12-22T10:40:32;8.70;;;5.00;;
52934;SDS011;38802;50.198;19.796;2023-12-22T10:43:01;8.80;;;4.90;;
52934;SDS011;38802;50.198;19.796;2023-12-22T10:45:29;7.20;;;4.50;;
52934;SDS011;38802;50.198;19.796;2023-12-22T10:47:59;8.50;;;4.40;;
52934;SDS011;38802;50.198;19.796;2023-12-22T10:50:27;9.20;;;4.70;;
52934;SDS011;38802;50.198;19.796;2023-12-22T10:52:55;6.30;;;4.60;;
52934;SDS011;38802;50.198;19.796;2023-12-22T10:55:23;7.40;;;5.10;;
52934;SDS011;38802;50.198;19.796;2023-12-22T10:57:52;7.60;;;4.30;;
52934;SDS011;38802;50.198;19.796;2023-12-22T11:00:21;10.40;;;4.40;;
52934;SDS011;38802;50.198;19.796;2023-12-22T11:02:51;7.00;;;4.10;;
52934;SDS011;38802;50.198;19.796;2023-12-22T11:05:28;7.10;;;4.50;;
52934;SDS011;38802;50.198;19.796;2023-12-22T11:08:00;8.60;;;4.30;;
52934;SDS011;38802;50.198;19.796;2023-12-22T11:22:48;10.20;;;5.20;;
52934;SDS011;38802;50.198;19.796;2023-12-22T11:25:18;7.70;;;4.40;;
52934;SDS011;38802;50.198;19.796;2023-12-22T11:27:48;4.10;;;2.80;;
52934;SDS011;38802;50.198;19.796;2023-12-22T11:30:20;8.00;;;3.90;;
52934;SDS011;38802;50.198;19.796;2023-12-22T11:32:49;4.60;;;3.40;;
52934;SDS011;38802;50.198;19.796;2023-12-22T11:35:18;7.70;;;3.70;;
52934;SDS011;38802;50.198;19.796;2023-12-22T11:37:46;4.60;;;3.10;;
52934;SDS011;38802;50.198;19.796;2023-12-22T11:40:17;3.70;;;3.20;;
52934;SDS011;38802;50.198;19.796;2023-12-22T11:42:48;4.20;;;3.40;;
52934;SDS011;38802;50.198;19.796;2023-12-22T11:45:19;4.00;;;3.20;;
52934;SDS011;38802;50.198;19.796;2023-12-22T11:47:47;5.60;;;3.80;;
52934;SDS011;38802;50.198;19.796;2023-12-22T11:50:27;4.10;;;2.90;;
52934;SDS011;38802;50.198;19.796;2023-12-22T11:53:17;4.20;;;2.80;;
52934;SDS011;38802;50.198;19.796;2023-12-22T11:56:00;3.90;;;3.10;;
52934;SDS011;38802;50.198;19.796;2023-12-22T11:59:08;5.20;;;3.70;;
52934;SDS011;38802;50.198;19.796;2023-12-22T12:01:30;3.20;;;2.90;;
52934;SDS011;38802;50.198;19.796;2023-12-22T12:04:05;4.20;;;3.60;;
52934;SDS011;38802;50.198;19.796;2023-12-22T12:06:34;4.60;;;3.40;;
52934;SDS011;38802;50.198;19.796;2023-12-22T12:09:06;5.20;;;2.70;;
52934;SDS011;38802;50.198;19.796;2023-12-22T12:14:29;4.40;;;3.30;;
52934;SDS011;38802;50.198;19.796;2023-12-22T12:17:03;4.70;;;3.00;;
52934;SDS011;38802;50.198;19.796;2023-12-22T12:19:38;4.20;;;3.80;;
52934;SDS011;38802;50.198;19.796;2023-12-22T12:22:07;4.70;;;3.60;;
52934;SDS011;38802;50.198;19.796;2023-12-22T12:24:36;4.20;;;3.20;;
52934;SDS011;38802;50.198;19.796;2023-12-22T12:27:05;3.40;;;3.00;;
52934;SDS011;38802;50.198;19.796;2023-12-22T12:29:34;5.30;;;3.00;;
52934;SDS011;38802;50.198;19.796;2023-12-22T12:32:02;3.90;;;3.40;;
52934;SDS011;38802;50.198;19.796;2023-12-22T12:34:34;3.60;;;3.30;;
52934;SDS011;38802;50.198;19.796;2023-12-22T12:37:02;6.20;;;3.60;;
52934;SDS011;38802;50.198;19.796;2023-12-22T12:39:33;5.10;;;3.80;;
52934;SDS011;38802;50.198;19.796;2023-12-22T12:42:02;3.90;;;3.50;;
52934;SDS011;38802;50.198;19.796;2023-12-22T12:44:35;4.80;;;3.70;;
52934;SDS011;38802;50.198;19.796;2023-12-22T12:47:15;6.70;;;3.50;;
52934;SDS011;38802;50.198;19.796;2023-12-22T12:49:43;5.20;;;3.60;;
52934;SDS011;38802;50.198;19.796;2023-12-22T12:52:33;5.00;;;3.90;;
52934;SDS011;38802;50.198;19.796;2023-12-22T12:55:02;7.80;;;5.00;;
52934;SDS011;38802;50.198;19.796;2023-12-22T12:57:31;6.20;;;3.70;;
52934;SDS011;38802;50.198;19.796;2023-12-22T13:00:00;5.20;;;4.50;;
52934;SDS011;38802;50.198;19.796;2023-12-22T13:02:29;5.40;;;4.00;;
52934;SDS011;38802;50.198;19.796;2023-12-22T13:04:57;3.60;;;3.30;;
52934;SDS011;38802;50.198;19.796;2023-12-22T13:07:25;3.80;;;3.50;;
52934;SDS011;38802;50.198;19.796;2023-12-22T13:09:54;5.40;;;3.90;;
52934;SDS011;38802;50.198;19.796;2023-12-22T13:12:24;3.70;;;3.20;;
52934;SDS011;38802;50.198;19.796;2023-12-22T13:14:53;5.10;;;3.40;;
52934;SDS011;38802;50.198;19.796;2023-12-22T13:17:22;7.50;;;3.70;;
52934;SDS011;38802;50.198;19.796;2023-12-22T13:19:50;5.70;;;3.10;;
52934;SDS011;38802;50.198;19.796;2023-12-22T13:22:19;5.50;;;3.50;;
52934;SDS011;38802;50.198;19.796;2023-12-22T13:24:56;6.20;;;4.10;;
52934;SDS011;38802;50.198;19.796;2023-12-22T13:27:27;6.70;;;4.60;;
52934;SDS011;38802;50.198;19.796;2023-12-22T13:29:55;4.50;;;3.60;;
52934;SDS011;38802;50.198;19.796;2023-12-22T13:32:23;4.30;;;3.10;;
52934;SDS011;38802;50.198;19.796;2023-12-22T13:34:53;6.00;;;3.50;;
52934;SDS011;38802;50.198;19.796;2023-12-22T13:37:22;4.20;;;3.30;;
52934;SDS011;38802;50.198;19.796;2023-12-22T13:39:54;7.80;;;4.30;;
52934;SDS011;38802;50.198;19.796;2023-12-22T13:42:22;9.40;;;3.60;;
52934;SDS011;38802;50.198;19.796;2023-12-22T13:44:51;6.50;;;3.60;;
52934;SDS011;38802;50.198;19.796;2023-12-22T13:47:20;8.20;;;3.80;;
52934;SDS011;38802;50.198;19.796;2023-12-22T13:49:49;9.50;;;3.20;;
52934;SDS011;38802;50.198;19.796;2023-12-22T13:52:27;4.70;;;3.30;;
52934;SDS011;38802;50.198;19.796;2023-12-22T13:54:56;6.60;;;4.10;;
52934;SDS011;38802;50.198;19.796;2023-12-22T13:57:29;4.50;;;2.90;;
52934;SDS011;38802;50.198;19.796;2023-12-22T13:59:57;3.20;;;2.60;;
52934;SDS011;38802;50.198;19.796;2023-12-22T14:02:28;6.20;;;2.90;;
52934;SDS011;38802;50.198;19.796;2023-12-22T14:04:57;3.00;;;2.70;;
52934;SDS011;38802;50.198;19.796;2023-12-22T14:07:25;4.00;;;2.50;;
52934;SDS011;38802;50.198;19.796;2023-12-22T14:09:54;4.10;;;2.30;;
52934;SDS011;38802;50.198;19.796;2023-12-22T14:12:22;7.70;;;3.10;;
52934;SDS011;38802;50.198;19.796;2023-12-22T14:14:59;4.80;;;3.20;;
52934;SDS011;38802;50.198;19.796;2023-12-22T14:17:27;4.60;;;2.90;;
52934;SDS011;38802;50.198;19.796;2023-12-22T14:19:58;5.60;;;3.00;;
52934;SDS011;38802;50.198;19.796;2023-12-22T14:22:27;7.50;;;4.30;;
52934;SDS011;38802;50.198;19.796;2023-12-22T14:24:56;4.00;;;2.80;;
52934;SDS011;38802;50.198;19.796;2023-12-22T14:27:24;5.10;;;3.50;;
52934;SDS011;38802;50.198;19.796;2023-12-22T14:30:03;5.10;;;3.70;;
52934;SDS011;38802;50.198;19.796;2023-12-22T14:32:34;5.10;;;3.30;;
52934;SDS011;38802;50.198;19.796;2023-12-22T14:35:02;7.60;;;3.40;;
52934;SDS011;38802;50.198;19.796;2023-12-22T14:37:33;7.50;;;3.60;;
52934;SDS011;38802;50.198;19.796;2023-12-22T14:40:02;8.70;;;3.90;;
52934;SDS011;38802;50.198;19.796;2023-12-22T14:42:31;6.70;;;3.80;;
52934;SDS011;38802;50.198;19.796;2023-12-22T14:45:00;4.60;;;3.70;;
52934;SDS011;38802;50.198;19.796;2023-12-22T14:47:33;15.80;;;3.80;;
52934;SDS011;38802;50.198;19.796;2023-12-22T14:50:03;7.70;;;4.50;;
52934;SDS011;38802;50.198;19.796;2023-12-22T14:52:32;7.80;;;5.00;;
52934;SDS011;38802;50.198;19.796;2023-12-22T14:55:03;12.40;;;4.20;;
52934;SDS011;38802;50.198;19.796;2023-12-22T14:57:32;8.00;;;4.30;;
52934;SDS011;38802;50.198;19.796;2023-12-22T15:00:05;3.30;;;3.00;;
52934;SDS011;38802;50.198;19.796;2023-12-22T15:05:06;6.70;;;3.70;;
52934;SDS011;38802;50.198;19.796;2023-12-22T15:07:37;6.70;;;4.40;;
52934;SDS011;38802;50.198;19.796;2023-12-22T15:10:05;7.70;;;3.20;;